KCPR/CPR METAR and TAF weather

Enter ICAO airport designator
Station Type Date Time Source
KCPR METAR 2020/01/22 14:53 UTC NOAA

KCPR 221453Z 24014KT 10SM CLR M01/M07 A2983 RMK AO2 SLP110 T10061067 53004


Station Type Date Time Source
KCPR Decoded METAR 2020/01/22 14:53 UTC NOAA

NATRONA COUNTY INTERNATIONAL AIRPORT , WY, United States (KCPR) 42-54N 106-28W 1621M
Jan 22, 2020 - 09:53 AM EST / 2020.01.22 1453 UTC
Wind: from the WSW (240 degrees) at 16 MPH (14 KT):0
Visibility: 10 mile(s):0
Sky conditions: clear
Temperature: 30.9 F (-0.6 C)
Windchill: 19 F (-7 C):1
Dew Point: 19.9 F (-6.7 C)
Relative Humidity: 63%
Pressure (altimeter): 29.83 in. Hg (1010 hPa)
Pressure tendency: 0.01 inches (0.4 hPa) higher than three hours ago
ob: KCPR 221453Z 24014KT 10SM CLR M01/M07 A2983 RMK AO2 SLP110 T10061067 53004
cycle: 15

Station Type Date Time Source
KCPR TAF 2020/01/22 12:36 UTC NOAA

TAF KCPR 221134Z 2212/2312 22015G25KT P6SM FEW120 SCT250
FM221700 27011KT P6SM SCT100 BKN150
FM222000 30010KT P6SM VCSH BKN060
FM222300 25007KT P6SM SCT100

Example: see airport list